Time;durP1;ratioP1;P1;durP2;ratioP2;P2;SDS_P1;SDS_P2;PMS_P1;PMS_P2;Temp;Humidity;BMP_temperature;BMP_pressure;BME280_temperature;BME280_humidity;BME280_pressure;Samples;Min_cycle;Max_cycle;Signal;HPM_P1;HPM_P2
2023/08/16 00:00:54;;;;;;;7.03;3.42;;;;;;;20.80;75.72;93272.44;2071813;69;20576;-80
2023/08/16 00:03:19;;;;;;;5.65;4.05;;;;;;;20.40;77.10;93273.97;2067731;69;20198;-80
2023/08/16 00:05:45;;;;;;;8.18;4.13;;;;;;;20.63;76.28;93273.31;2068053;69;20584;-80
2023/08/16 00:08:11;;;;;;;5.80;4.30;;;;;;;20.70;76.01;93272.09;2067869;69;20210;-80
2023/08/16 00:10:37;;;;;;;5.35;3.78;;;;;;;20.74;75.57;93274.38;2070103;69;20245;-82
2023/08/16 00:13:06;;;;;;;4.28;3.80;;;;;;;20.61;76.91;93276.09;2069417;69;20246;-78
2023/08/16 00:15:32;;;;;;;5.88;3.30;;;;;;;20.53;77.15;93270.88;2067963;69;20144;-79
2023/08/16 00:17:57;;;;;;;5.15;3.15;;;;;;;20.55;76.28;93270.91;2069888;69;20151;-79
2023/08/16 00:20:26;;;;;;;6.82;3.40;;;;;;;20.49;77.25;93267.13;2068752;69;20179;-81
2023/08/16 00:22:54;;;;;;;6.45;3.60;;;;;;;20.52;75.94;93263.66;2069489;69;20159;-79
2023/08/16 00:25:20;;;;;;;3.88;3.22;;;;;;;20.52;76.50;93266.50;2069081;69;20204;-79
2023/08/16 00:27:46;;;;;;;7.90;3.83;;;;;;;20.48;76.90;93263.56;2068066;69;20215;-79
2023/08/16 00:30:12;;;;;;;7.80;3.63;;;;;;;20.46;76.56;93254.84;2069738;69;20175;-81
2023/08/16 00:32:37;;;;;;;5.38;3.15;;;;;;;20.50;75.88;93262.88;2068426;69;20160;-79
2023/08/16 00:35:04;;;;;;;6.70;3.58;;;;;;;20.34;76.81;93254.44;2069554;69;20159;-80
2023/08/16 00:37:30;;;;;;;3.25;2.95;;;;;;;20.39;76.11;93253.22;2067841;69;20535;-79
2023/08/16 00:39:59;;;;;;;7.20;3.10;;;;;;;20.29;76.72;93247.88;2069199;69;20191;-77
2023/08/16 00:42:24;;;;;;;5.20;3.08;;;;;;;20.31;76.45;93247.22;2070730;69;20152;-79
2023/08/16 00:44:51;;;;;;;5.40;2.90;;;;;;;20.28;76.82;93237.81;2069107;69;20188;-79
2023/08/16 00:47:19;;;;;;;7.28;3.15;;;;;;;20.23;76.87;93235.50;2068407;69;20754;-79
2023/08/16 00:49:46;;;;;;;5.20;3.40;;;;;;;20.21;76.90;93226.88;2070192;69;20194;-80
2023/08/16 00:52:11;;;;;;;5.78;3.30;;;;;;;20.21;76.07;93227.59;2071007;69;20160;-80
2023/08/16 00:54:37;;;;;;;2.70;2.50;;;;;;;20.12;76.76;93223.00;2068198;69;20527;-80
2023/08/16 00:57:03;;;;;;;3.85;2.63;;;;;;;20.08;76.60;93222.13;2071170;69;20208;-82
2023/08/16 00:59:30;;;;;;;5.07;2.55;;;;;;;20.06;75.42;93223.50;2070228;69;20524;-78
2023/08/16 01:01:56;;;;;;;4.18;2.40;;;;;;;20.01;75.37;93219.06;2067603;69;20152;-80
2023/08/16 01:04:22;;;;;;;3.30;2.17;;;;;;;19.89;76.31;93220.78;2070546;69;20199;-81
2023/08/16 01:06:48;;;;;;;4.07;2.15;;;;;;;19.87;76.64;93218.56;2069155;69;20148;-80
2023/08/16 01:09:14;;;;;;;5.85;2.15;;;;;;;19.80;75.44;93217.66;2068092;69;20231;-82
2023/08/16 01:12:00;;;;;;;2.10;1.90;;;;;;;19.73;76.60;93218.09;2071924;69;20144;-81
2023/08/16 01:15:05;;;;;;;2.85;1.88;;;;;;;19.64;76.99;93224.91;2067943;69;20297;-80
2023/08/16 01:17:30;;;;;;;6.50;2.15;;;;;;;19.71;76.24;93215.91;2070237;69;20247;-78
2023/08/16 01:19:58;;;;;;;3.45;2.30;;;;;;;19.69;76.31;93215.81;2074693;69;20593;-82
2023/08/16 01:22:29;;;;;;;2.97;2.17;;;;;;;19.70;76.00;93207.97;2069697;69;20137;-79
2023/08/16 01:25:04;;;;;;;2.90;1.80;;;;;;;19.72;76.05;93216.63;2067805;69;20666;-81
2023/08/16 01:27:31;;;;;;;2.80;2.25;;;;;;;19.60;76.00;93219.03;2068534;69;20189;-80
2023/08/16 01:29:56;;;;;;;3.78;1.60;;;;;;;19.50;76.72;93213.69;2073814;69;20215;-80
2023/08/16 01:32:25;;;;;;;2.72;1.83;;;;;;;19.45;76.98;93217.78;2069420;69;20148;-83
2023/08/16 01:34:50;;;;;;;2.83;2.05;;;;;;;19.44;76.97;93219.19;2073252;69;20533;-78
2023/08/16 01:37:16;;;;;;;3.83;1.48;;;;;;;19.49;76.07;93212.22;2069224;69;20264;-84
2023/08/16 01:39:41;;;;;;;3.22;1.52;;;;;;;19.34;76.93;93216.69;2068002;69;20148;-80
2023/08/16 01:42:13;;;;;;;2.05;1.60;;;;;;;19.33;76.88;93215.22;2068102;69;20159;-79
2023/08/16 01:44:39;;;;;;;2.97;2.10;;;;;;;19.13;76.94;93220.19;2073219;69;20144;-82
2023/08/16 01:47:06;;;;;;;2.90;1.98;;;;;;;19.23;77.30;93218.44;2072895;69;20163;-80
2023/08/16 01:49:34;;;;;;;2.70;1.77;;;;;;;19.30;75.82;93205.84;2071246;69;20639;-78
2023/08/16 01:52:00;;;;;;;3.13;1.50;;;;;;;19.25;76.48;93214.94;2068086;69;20153;-78
2023/08/16 01:54:25;;;;;;;2.75;1.65;;;;;;;19.20;76.51;93219.03;2071669;69;20160;-79
2023/08/16 01:56:52;;;;;;;2.80;1.70;;;;;;;19.22;76.49;93210.53;2067963;69;20145;-81
2023/08/16 01:59:21;;;;;;;3.20;1.60;;;;;;;19.08;77.05;93210.72;2068534;69;20132;-80
2023/08/16 02:01:49;;;;;;;5.85;1.85;;;;;;;18.99;77.58;93214.66;2070800;69;20179;-79
2023/08/16 02:04:18;;;;;;;2.53;1.50;;;;;;;19.02;77.24;93210.50;2074220;69;20156;-83
2023/08/16 02:06:45;;;;;;;5.75;1.80;;;;;;;19.08;76.58;93210.00;2074427;69;20187;-84
2023/08/16 02:09:11;;;;;;;2.58;1.60;;;;;;;19.03;76.19;93212.72;2073991;69;20199;-80
2023/08/16 02:11:39;;;;;;;2.33;1.48;;;;;;;19.08;74.52;93207.16;2068103;69;20151;-78
2023/08/16 02:14:08;;;;;;;3.75;1.48;;;;;;;19.03;75.73;93209.84;2070917;69;20305;-79
2023/08/16 02:16:34;;;;;;;3.47;1.70;;;;;;;18.94;76.80;93219.50;2073292;69;20530;-79
2023/08/16 02:19:00;;;;;;;2.85;1.42;;;;;;;18.82;76.78;93204.75;2068152;69;20155;-79
2023/08/16 02:21:26;;;;;;;2.88;1.52;;;;;;;18.93;76.23;93214.44;2069649;69;20291;-77
2023/08/16 02:23:54;;;;;;;4.15;1.52;;;;;;;18.82;76.58;93210.47;2067711;69;20191;-78
2023/08/16 02:26:22;;;;;;;1.63;1.50;;;;;;;18.77;76.94;93215.28;2069559;69;20279;-80
2023/08/16 02:28:49;;;;;;;6.70;1.40;;;;;;;18.82;76.36;93216.16;2068696;69;20151;-80
2023/08/16 02:31:16;;;;;;;2.30;1.40;;;;;;;18.65;77.33;93214.78;2072447;69;20148;-81
2023/08/16 02:33:42;;;;;;;4.70;1.60;;;;;;;18.67;77.14;93205.56;2068529;69;20143;-79
2023/08/16 02:36:07;;;;;;;3.70;1.50;;;;;;;18.62;76.49;93204.69;2071173;69;20155;-80
2023/08/16 02:38:33;;;;;;;4.47;1.83;;;;;;;18.69;76.56;93208.53;2074646;69;20156;-83
2023/08/16 02:41:00;;;;;;;3.33;1.60;;;;;;;18.63;76.85;93211.13;2072291;69;20163;-79
2023/08/16 02:43:25;;;;;;;5.38;1.73;;;;;;;18.57;76.92;93210.88;2074365;69;20143;-79
2023/08/16 02:45:52;;;;;;;2.25;1.50;;;;;;;18.49;77.40;93217.00;2071078;69;20151;-76
2023/08/16 02:48:18;;;;;;;4.45;1.42;;;;;;;18.53;76.52;93214.31;2069439;69;20594;-79
2023/08/16 02:50:45;;;;;;;1.92;1.40;;;;;;;18.48;77.00;93207.72;2071569;69;20180;-81
2023/08/16 02:53:10;;;;;;;2.10;1.30;;;;;;;18.42;77.54;93209.59;2071827;69;20168;-80
2023/08/16 02:55:36;;;;;;;3.88;1.60;;;;;;;18.41;77.44;93210.97;2067590;69;20191;-80
2023/08/16 02:58:02;;;;;;;4.18;1.65;;;;;;;18.37;77.66;93211.56;2073254;69;20156;-81
2023/08/16 03:00:29;;;;;;;7.47;1.65;;;;;;;18.39;76.85;93210.91;2067570;69;20156;-80
2023/08/16 03:02:55;;;;;;;1.85;1.50;;;;;;;18.37;77.07;93205.09;2071079;69;20236;-84
2023/08/16 03:05:21;;;;;;;3.42;1.50;;;;;;;18.34;77.13;93209.28;2067685;69;20136;-82
2023/08/16 03:07:47;;;;;;;3.70;1.80;;;;;;;18.25;77.93;93211.06;2067659;69;20785;-82
2023/08/16 03:10:12;;;;;;;4.20;1.60;;;;;;;18.27;77.90;93205.44;2071137;69;20145;-82
2023/08/16 03:12:38;;;;;;;2.97;1.70;;;;;;;18.28;77.38;93204.06;2070977;69;20525;-80
2023/08/16 03:15:04;;;;;;;5.82;1.60;;;;;;;18.24;77.92;93196.09;2071235;69;20187;-79
2023/08/16 03:17:30;;;;;;;4.75;1.60;;;;;;;18.28;76.58;93204.81;2067931;69;20145;-79
2023/08/16 03:19:56;;;;;;;2.58;1.60;;;;;;;18.23;77.83;93199.56;2067890;69;20568;-81
2023/08/16 03:22:21;;;;;;;4.65;1.80;;;;;;;18.28;77.47;93206.91;2070952;69;20151;-82
2023/08/16 03:24:49;;;;;;;3.10;1.50;;;;;;;18.07;78.00;93204.63;2071014;69;20155;-80
2023/08/16 03:27:15;;;;;;;2.22;1.50;;;;;;;18.14;78.21;93212.75;2073825;69;20271;-80
2023/08/16 03:29:41;;;;;;;4.18;1.80;;;;;;;18.13;77.79;93207.72;2069029;69;20231;-81
2023/08/16 03:32:07;;;;;;;4.55;1.70;;;;;;;18.04;77.84;93198.81;2070843;69;20197;-81
2023/08/16 03:34:33;;;;;;;5.35;1.77;;;;;;;17.84;78.57;93197.25;2068667;69;20164;-82
2023/08/16 03:36:59;;;;;;;5.40;1.60;;;;;;;17.93;78.19;93196.94;2068755;69;20175;-80
2023/08/16 03:39:25;;;;;;;8.30;1.60;;;;;;;17.91;78.32;93208.25;2069029;69;20146;-82
2023/08/16 03:41:51;;;;;;;8.27;2.10;;;;;;;17.90;76.64;93197.50;2070777;69;20144;-80
2023/08/16 03:44:17;;;;;;;9.18;1.83;;;;;;;17.94;77.37;93211.94;2073983;69;20590;-81
2023/08/16 03:46:43;;;;;;;6.40;1.80;;;;;;;17.90;77.58;93212.47;2068523;69;20690;-79
2023/08/16 03:49:08;;;;;;;5.07;1.52;;;;;;;17.94;77.91;93206.22;2070313;69;20217;-82
2023/08/16 03:51:35;;;;;;;5.97;2.17;;;;;;;17.63;78.59;93192.78;2067961;69;20164;-81
2023/08/16 03:54:01;;;;;;;4.10;1.90;;;;;;;17.75;78.37;93205.47;2067888;69;20172;-83
2023/08/16 03:56:27;;;;;;;7.03;2.63;;;;;;;17.85;76.59;93213.69;2071345;69;20160;-83
2023/08/16 03:58:54;;;;;;;7.47;2.38;;;;;;;17.79;77.17;93216.28;2068034;69;20217;-83
2023/08/16 04:01:19;;;;;;;3.72;2.00;;;;;;;17.93;76.25;93213.31;2071507;69;20521;-83
2023/08/16 04:03:46;;;;;;;7.63;2.10;;;;;;;17.89;75.55;93207.44;2067517;69;20551;-82
2023/08/16 04:06:12;;;;;;;7.03;1.90;;;;;;;17.90;76.04;93211.75;2068218;69;20148;-81
2023/08/16 04:08:38;;;;;;;9.68;3.78;;;;;;;17.70;77.67;93209.50;2065181;69;20267;-80
2023/08/16 04:11:05;;;;;;;5.25;2.22;;;;;;;17.67;77.92;93221.44;2068143;69;20564;-83
2023/08/16 04:13:31;;;;;;;6.45;2.40;;;;;;;17.72;77.53;93225.91;2068439;69;20141;-80
2023/08/16 04:15:57;;;;;;;8.60;2.10;;;;;;;17.70;77.78;93223.00;2071921;69;20167;-79
2023/08/16 04:18:23;;;;;;;7.82;1.90;;;;;;;17.66;78.29;93222.81;2065723;69;20264;-79
2023/08/16 04:20:49;;;;;;;2.70;1.60;;;;;;;17.75;77.72;93216.13;2071914;69;20136;-81
2023/08/16 04:23:15;;;;;;;3.90;1.58;;;;;;;17.69;78.67;93218.69;2071857;69;20237;-80
2023/08/16 04:25:40;;;;;;;5.20;1.63;;;;;;;17.75;78.09;93224.66;2068539;69;20540;-79
2023/08/16 04:28:06;;;;;;;5.45;1.98;;;;;;;17.80;76.17;93217.75;2071033;69;20160;-81
2023/08/16 04:30:31;;;;;;;4.72;2.10;;;;;;;17.68;77.45;93226.47;2071834;69;20179;-83
2023/08/16 04:32:57;;;;;;;4.65;2.20;;;;;;;17.72;77.04;93235.19;2070712;69;20158;-80
2023/08/16 04:35:23;;;;;;;4.20;1.90;;;;;;;17.57;77.99;93226.69;2071899;69;20154;-84
2023/08/16 04:37:50;;;;;;;5.80;1.52;;;;;;;17.70;77.44;93231.53;2072053;69;20136;-84
2023/08/16 04:40:16;;;;;;;6.32;2.10;;;;;;;17.18;79.27;93225.75;2075289;69;20147;-81
2023/08/16 04:42:41;;;;;;;7.10;2.00;;;;;;;17.53;77.37;93235.78;2075396;69;20232;-81
2023/08/16 04:45:07;;;;;;;4.43;1.92;;;;;;;17.61;77.78;93236.16;2075419;69;20486;-81
2023/08/16 04:47:33;;;;;;;3.55;1.85;;;;;;;17.60;77.17;93231.84;2071968;69;20132;-86
2023/08/16 04:50:03;;;;;;;7.90;1.92;;;;;;;17.68;77.23;93237.88;2071986;69;20213;-79
2023/08/16 04:52:29;;;;;;;3.20;1.70;;;;;;;17.68;75.69;93243.56;2071973;69;20178;-81
2023/08/16 04:54:54;;;;;;;7.72;2.55;;;;;;;17.60;76.56;93248.19;2075244;69;20140;-81
2023/08/16 04:57:21;;;;;;;2.90;1.98;;;;;;;17.59;77.20;93246.69;2071821;69;20151;-81
2023/08/16 04:59:47;;;;;;;2.80;2.00;;;;;;;17.68;76.47;93251.38;2075289;69;20155;-81
2023/08/16 05:02:13;;;;;;;5.30;2.22;;;;;;;17.61;77.80;93253.22;2070987;69;20143;-81
2023/08/16 05:04:39;;;;;;;4.55;1.80;;;;;;;17.62;77.52;93251.13;2071830;69;20308;-82
2023/08/16 05:07:05;;;;;;;2.45;1.65;;;;;;;17.61;78.11;93241.13;2071949;69;20140;-82
2023/08/16 05:09:30;;;;;;;4.05;2.30;;;;;;;17.59;77.13;93243.84;2071784;69;20510;-81
2023/08/16 05:11:56;;;;;;;23.25;9.07;;;;;;;17.35;77.55;93258.50;2075535;69;20228;-83
2023/08/16 05:14:23;;;;;;;24.02;9.48;;;;;;;17.45;77.02;93261.78;2071906;69;20239;-81
2023/08/16 05:16:49;;;;;;;22.85;9.57;;;;;;;17.56;76.54;93259.41;2075139;69;20190;-82
2023/08/16 05:19:15;;;;;;;14.40;5.93;;;;;;;17.54;77.41;93265.72;2071956;69;20132;-80
2023/08/16 05:21:40;;;;;;;9.30;3.40;;;;;;;17.57;77.45;93267.28;2071853;69;20132;-79
2023/08/16 05:24:06;;;;;;;4.63;2.25;;;;;;;17.56;78.10;93267.94;2075106;69;20254;-84
2023/08/16 05:26:32;;;;;;;7.93;3.03;;;;;;;17.66;77.55;93269.09;2075433;69;20657;-81
2023/08/16 05:28:58;;;;;;;5.60;1.80;;;;;;;17.49;78.43;93252.69;2075296;69;20159;-84
2023/08/16 05:31:23;;;;;;;3.83;1.85;;;;;;;17.66;76.87;93266.25;2074522;69;20140;-82
2023/08/16 05:33:49;;;;;;;5.25;1.80;;;;;;;17.54;77.73;93266.44;2075235;69;20132;-85
2023/08/16 05:36:16;;;;;;;3.33;1.67;;;;;;;17.60;77.36;93266.00;2075414;69;20148;-84
2023/08/16 05:38:41;;;;;;;4.88;2.40;;;;;;;17.32;78.53;93264.72;2075208;69;20579;-83
2023/08/16 05:41:07;;;;;;;5.50;2.63;;;;;;;17.53;77.84;93265.00;2075290;69;20135;-82
2023/08/16 05:43:33;;;;;;;4.63;2.60;;;;;;;17.60;76.82;93271.69;2075254;69;20211;-81
2023/08/16 05:45:59;;;;;;;5.70;2.40;;;;;;;17.58;77.05;93268.75;2075520;69;20143;-82
2023/08/16 05:48:24;;;;;;;6.20;2.10;;;;;;;17.61;77.62;93267.47;2075277;69;20159;-81
2023/08/16 05:50:50;;;;;;;4.35;1.60;;;;;;;17.74;76.56;93266.66;2075291;69;20174;-80
2023/08/16 05:53:16;;;;;;;5.97;1.50;;;;;;;17.78;77.33;93268.94;2075183;69;20152;-79
2023/08/16 05:55:41;;;;;;;4.20;1.80;;;;;;;17.75;77.10;93278.75;2075108;69;20672;-83
2023/08/16 05:58:08;;;;;;;4.03;1.52;;;;;;;17.70;77.89;93268.56;2075674;69;20147;-84
2023/08/16 06:00:33;;;;;;;3.17;1.70;;;;;;;17.78;77.20;93263.97;2078351;69;20629;-86
2023/08/16 06:03:00;;;;;;;2.58;1.60;;;;;;;17.71;77.98;93279.28;2075899;69;20139;-86
2023/08/16 06:05:25;;;;;;;6.07;2.35;;;;;;;17.74;76.80;93269.50;2076453;69;20143;-86
2023/08/16 06:07:51;;;;;;;3.95;1.73;;;;;;;17.60;76.30;93262.44;2075398;69;20140;-88
2023/08/16 06:10:17;;;;;;;5.32;2.05;;;;;;;17.80;75.76;93265.44;2075166;69;20657;-85
2023/08/16 06:12:42;;;;;;;5.35;1.65;;;;;;;17.80;76.84;93260.47;2074779;69;20172;-84
2023/08/16 06:15:11;;;;;;;3.42;1.80;;;;;;;17.82;76.84;93257.69;2071749;69;20575;-87
2023/08/16 06:17:40;;;;;;;3.42;1.80;;;;;;;17.83;76.09;93261.31;2075175;69;20179;-85
2023/08/16 06:20:07;;;;;;;3.40;1.90;;;;;;;17.77;76.16;93262.50;2074669;69;20640;-84
2023/08/16 06:22:37;;;;;;;4.25;2.10;;;;;;;17.77;77.56;93273.88;2073920;69;20602;-86
2023/08/16 06:25:07;;;;;;;9.65;1.92;;;;;;;17.87;76.44;93270.75;2075982;69;20246;-78
2023/08/16 06:27:33;;;;;;;4.80;1.80;;;;;;;17.90;76.68;93275.13;2074409;69;20163;-79
2023/08/16 06:29:59;;;;;;;4.70;1.65;;;;;;;17.93;77.17;93265.31;2072749;69;20205;-78
2023/08/16 06:32:25;;;;;;;5.75;1.95;;;;;;;17.86;77.38;93268.53;2071236;69;20590;-78
2023/08/16 06:34:51;;;;;;;4.10;2.08;;;;;;;18.04;76.61;93269.31;2072757;69;20197;-83
2023/08/16 06:37:16;;;;;;;8.57;2.00;;;;;;;18.02;77.60;93274.94;2074143;69;20227;-83
2023/08/16 06:39:42;;;;;;;5.57;1.70;;;;;;;18.15;76.24;93265.53;2071697;69;20144;-83
2023/08/16 06:42:09;;;;;;;3.00;1.90;;;;;;;18.23;77.26;93271.53;2071768;69;20136;-80
2023/08/16 06:44:36;;;;;;;3.83;2.10;;;;;;;18.43;76.25;93276.63;2070171;69;20245;-80
2023/08/16 06:47:02;;;;;;;8.27;2.22;;;;;;;18.51;77.62;93272.00;2074589;69;20498;-78
2023/08/16 06:49:30;;;;;;;4.18;1.90;;;;;;;18.57;76.90;93276.47;2075147;69;20608;-80
2023/08/16 06:51:55;;;;;;;3.55;1.92;;;;;;;18.68;77.12;93276.22;2073005;69;20176;-81
2023/08/16 06:54:21;;;;;;;4.55;2.10;;;;;;;18.86;77.06;93275.50;2072482;69;20140;-80
2023/08/16 06:56:47;;;;;;;3.45;1.80;;;;;;;18.93;76.45;93266.53;2074431;69;20175;-79
2023/08/16 06:59:14;;;;;;;3.65;2.00;;;;;;;18.97;77.86;93271.66;2076473;69;20152;-79
2023/08/16 07:01:40;;;;;;;3.58;2.13;;;;;;;18.66;76.12;93264.72;2071790;69;20163;-82
2023/08/16 07:04:05;;;;;;;8.13;1.95;;;;;;;19.04;77.38;93271.22;2072387;69;20160;-82
2023/08/16 07:06:31;;;;;;;6.28;2.50;;;;;;;19.16;76.67;93264.53;2072222;69;20144;-82
2023/08/16 07:08:58;;;;;;;9.27;3.10;;;;;;;19.64;76.48;93270.59;2070864;69;20691;-81
2023/08/16 07:11:24;;;;;;;6.68;2.13;;;;;;;19.96;74.10;93259.59;2070508;69;20217;-81
2023/08/16 07:13:51;;;;;;;5.93;1.95;;;;;;;20.29;74.42;93262.16;2070701;69;20144;-82
2023/08/16 07:16:17;;;;;;;6.57;2.38;;;;;;;20.46;74.06;93257.72;2071208;69;20148;-80
2023/08/16 07:18:43;;;;;;;6.68;2.50;;;;;;;20.16;70.56;93266.03;2071123;69;20202;-79
2023/08/16 07:21:10;;;;;;;4.78;2.40;;;;;;;20.15;70.47;93260.94;2071245;69;20152;-80
2023/08/16 07:23:35;;;;;;;5.65;2.58;;;;;;;20.81;72.77;93261.72;2071177;69;20144;-80
2023/08/16 07:26:03;;;;;;;4.78;1.70;;;;;;;20.74;68.69;93266.50;2071121;69;20150;-79
2023/08/16 07:28:28;;;;;;;2.50;1.80;;;;;;;21.26;70.52;93271.69;2070812;69;20148;-79
2023/08/16 07:30:55;;;;;;;3.25;1.85;;;;;;;21.70;69.78;93265.84;2070805;69;20525;-79
2023/08/16 07:33:22;;;;;;;10.32;2.15;;;;;;;21.83;70.15;93270.50;2071027;69;20140;-80
2023/08/16 07:35:49;;;;;;;5.28;1.90;;;;;;;22.28;69.18;93268.88;2070973;69;20152;-84
2023/08/16 07:38:15;;;;;;;4.18;1.70;;;;;;;22.57;67.87;93273.91;2070808;69;20159;-81
2023/08/16 07:40:47;;;;;;;8.68;1.98;;;;;;;22.66;65.48;93279.88;2071760;69;20140;-82
2023/08/16 07:43:13;;;;;;;3.05;1.90;;;;;;;22.56;64.27;93277.47;2071507;69;20128;-80
2023/08/16 07:45:39;;;;;;;10.85;2.50;;;;;;;22.97;67.17;93270.63;2068341;69;20538;-80
2023/08/16 07:48:04;;;;;;;3.15;1.90;;;;;;;23.17;65.13;93270.34;2072004;69;20136;-80
2023/08/16 07:50:30;;;;;;;3.10;1.65;;;;;;;23.31;63.78;93269.94;2072076;69;20183;-80
2023/08/16 07:52:56;;;;;;;5.00;1.95;;;;;;;23.59;63.54;93266.97;2072045;69;20136;-78
2023/08/16 07:55:23;;;;;;;4.60;2.20;;;;;;;23.84;63.16;93266.09;2068596;69;20168;-79
2023/08/16 07:57:49;;;;;;;5.75;1.77;;;;;;;24.06;61.64;93267.94;2072060;69;20144;-79
2023/08/16 08:00:15;;;;;;;3.55;1.85;;;;;;;24.41;62.24;93260.72;2065715;69;20514;-78
2023/08/16 08:02:41;;;;;;;4.10;1.85;;;;;;;24.69;60.88;93259.75;2073165;69;20593;-79
2023/08/16 08:05:07;;;;;;;4.68;1.90;;;;;;;24.74;55.53;93262.03;2075403;69;20156;-81
2023/08/16 08:07:32;;;;;;;3.05;1.77;;;;;;;24.35;54.93;93260.56;2075455;69;20140;-82
2023/08/16 08:09:58;;;;;;;2.22;1.45;;;;;;;25.09;57.29;93263.31;2075429;69;20171;-81
2023/08/16 08:12:24;;;;;;;3.20;2.00;;;;;;;25.28;53.37;93263.59;2072319;69;20140;-80
2023/08/16 08:14:49;;;;;;;6.63;2.30;;;;;;;25.60;53.63;93264.03;2075514;69;20204;-80
2023/08/16 08:17:16;;;;;;;3.50;1.73;;;;;;;25.78;53.62;93254.22;2071968;69;20151;-80
2023/08/16 08:19:42;;;;;;;4.47;1.77;;;;;;;26.04;53.62;93254.53;2075333;69;20147;-80
2023/08/16 08:22:09;;;;;;;2.92;1.67;;;;;;;26.15;50.73;93252.50;2075322;69;20152;-80
2023/08/16 08:24:35;;;;;;;2.33;1.88;;;;;;;26.52;53.98;93255.78;2075336;69;20144;-80
2023/08/16 08:27:01;;;;;;;4.43;1.73;;;;;;;26.31;50.58;93244.00;2075463;69;20134;-80
2023/08/16 08:29:27;;;;;;;3.03;1.85;;;;;;;26.60;49.20;93247.22;2075422;69;20164;-80
2023/08/16 08:31:55;;;;;;;2.38;1.67;;;;;;;26.88;46.89;93240.22;2073042;69;20258;-81
2023/08/16 08:34:22;;;;;;;3.53;1.70;;;;;;;27.33;48.26;93223.97;2068650;69;20140;-81
2023/08/16 08:36:47;;;;;;;2.95;1.83;;;;;;;27.23;46.30;93241.25;2068618;69;20674;-81
2023/08/16 08:39:15;;;;;;;3.53;1.65;;;;;;;27.07;47.18;93233.88;2071973;69;20163;-84
2023/08/16 08:41:41;;;;;;;3.95;1.70;;;;;;;27.51;46.63;93229.13;2071951;69;20240;-81
2023/08/16 08:44:08;;;;;;;2.63;1.70;;;;;;;27.81;44.96;93232.22;2071937;69;20556;-84
2023/08/16 08:46:34;;;;;;;3.85;1.60;;;;;;;28.00;44.06;93235.19;2072053;69;20139;-84
2023/08/16 08:49:01;;;;;;;2.72;1.70;;;;;;;28.44;45.30;93228.09;2072111;69;20144;-81
2023/08/16 08:51:31;;;;;;;2.92;1.70;;;;;;;28.44;44.89;93231.00;2072004;69;20173;-81
2023/08/16 08:53:56;;;;;;;3.40;1.80;;;;;;;28.73;43.65;93232.50;2071862;69;20147;-81
2023/08/16 08:56:24;;;;;;;3.05;1.80;;;;;;;28.72;41.76;93233.22;2071959;69;20556;-80
2023/08/16 08:58:52;;;;;;;4.50;1.80;;;;;;;28.44;42.68;93228.81;2072037;69;20221;-83
2023/08/16 09:01:20;;;;;;;2.78;1.90;;;;;;;28.95;42.58;93231.03;2071947;69;20236;-82
2023/08/16 09:03:48;;;;;;;4.35;1.77;;;;;;;29.55;41.79;93229.59;2071989;69;20230;-80
2023/08/16 09:06:15;;;;;;;3.65;1.60;;;;;;;29.59;40.62;93226.69;2071924;69;20168;-80
2023/08/16 09:08:42;;;;;;;3.53;1.63;;;;;;;28.39;42.76;93223.75;2071936;69;20171;-81
2023/08/16 09:11:08;;;;;;;4.10;1.67;;;;;;;29.96;40.19;93220.75;2071943;69;20254;-81
2023/08/16 09:13:34;;;;;;;5.47;2.10;;;;;;;29.07;41.01;93222.38;2072058;69;20205;-84
2023/08/16 09:16:01;;;;;;;2.78;1.90;;;;;;;29.45;41.29;93217.97;2072103;69;20125;-85
2023/08/16 09:18:27;;;;;;;5.00;1.90;;;;;;;29.24;40.21;93212.22;2072044;69;20209;-83
2023/08/16 09:20:53;;;;;;;3.15;1.50;;;;;;;30.30;39.87;93196.69;2072071;69;20156;-83
2023/08/16 09:23:19;;;;;;;1.73;1.60;;;;;;;31.14;37.11;93205.56;2071884;69;20183;-80
2023/08/16 09:25:45;;;;;;;2.10;1.90;;;;;;;31.30;37.25;93193.09;2072034;69;20163;-81
2023/08/16 09:28:14;;;;;;;3.53;1.52;;;;;;;31.54;36.18;93195.03;2071940;69;20139;-81
2023/08/16 09:30:43;;;;;;;4.53;1.77;;;;;;;31.19;36.42;93189.50;2071785;69;20149;-80
2023/08/16 09:33:12;;;;;;;2.83;1.70;;;;;;;30.13;36.93;93187.31;2071674;69;20653;-80
2023/08/16 09:35:43;;;;;;;3.58;1.67;;;;;;;30.93;37.41;93178.09;2071888;69;20237;-81
2023/08/16 09:38:09;;;;;;;1.70;1.50;;;;;;;31.70;36.24;93185.38;2071869;69;20183;-82
2023/08/16 09:40:35;;;;;;;2.03;1.67;;;;;;;31.11;35.78;93181.59;2071770;69;20128;-81
2023/08/16 09:43:01;;;;;;;3.80;1.80;;;;;;;30.48;37.55;93170.44;2069227;69;20597;-81
2023/08/16 09:45:36;;;;;;;2.30;1.70;;;;;;;30.17;37.55;93178.59;2075218;69;20202;-82
2023/08/16 09:48:04;;;;;;;1.90;1.55;;;;;;;31.39;36.58;93168.28;2075461;69;20612;-81
2023/08/16 09:50:35;;;;;;;2.13;1.77;;;;;;;31.88;36.80;93159.72;2074871;69;20250;-84
2023/08/16 09:53:04;;;;;;;4.38;1.63;;;;;;;33.11;33.57;93160.91;2071861;69;20136;-84
2023/08/16 09:55:39;;;;;;;2.47;1.63;;;;;;;32.13;34.33;93160.16;2071770;69;20179;-84
2023/08/16 09:58:07;;;;;;;2.20;1.67;;;;;;;32.34;36.09;93154.75;2072025;69;20160;-85
2023/08/16 10:00:34;;;;;;;2.53;1.60;;;;;;;32.94;35.93;93154.63;2071970;69;20140;-80
2023/08/16 10:03:01;;;;;;;2.95;1.70;;;;;;;32.63;35.02;93151.47;2071805;69;20240;-80
2023/08/16 10:05:27;;;;;;;2.60;1.50;;;;;;;32.41;34.98;93145.97;2068445;69;20537;-82
2023/08/16 10:07:56;;;;;;;3.00;1.50;;;;;;;33.82;32.91;93150.88;2068456;69;20144;-81
2023/08/16 10:10:22;;;;;;;2.63;1.55;;;;;;;33.47;34.55;93142.06;2071609;69;20152;-80
2023/08/16 10:12:50;;;;;;;1.98;1.50;;;;;;;33.93;32.46;93139.69;2071798;69;20159;-79
2023/08/16 10:15:16;;;;;;;1.75;1.50;;;;;;;34.98;32.60;93133.00;2071952;69;20136;-79
2023/08/16 10:17:43;;;;;;;2.42;1.30;;;;;;;34.92;31.99;93133.13;2068538;69;20609;-79
2023/08/16 10:20:38;;;;;;;2.30;1.45;;;;;;;35.81;31.76;93126.47;2068461;69;20145;-78
2023/08/16 10:23:05;;;;;;;5.05;1.63;;;;;;;36.61;31.12;93122.66;2071793;69;20144;-80
2023/08/16 10:25:52;;;;;;;8.52;1.73;;;;;;;36.19;30.64;93121.00;2072024;69;20183;-79
2023/08/16 10:28:25;;;;;;;3.08;1.80;;;;;;;35.36;33.22;93113.03;2068436;69;20567;-79
2023/08/16 10:30:56;;;;;;;2.85;1.52;;;;;;;37.48;29.33;93118.38;2068508;69;20159;-81
2023/08/16 10:33:30;;;;;;;4.70;1.60;;;;;;;36.20;29.45;93102.66;2071689;69;20674;-80
2023/08/16 10:35:56;;;;;;;3.95;1.67;;;;;;;35.98;30.36;93101.09;2071804;69;20604;-78
2023/08/16 10:38:22;;;;;;;1.75;1.60;;;;;;;37.87;30.16;93102.34;2071480;69;20129;-78
2023/08/16 10:40:57;;;;;;;3.65;1.67;;;;;;;37.12;28.42;93100.50;2071842;69;20251;-79
2023/08/16 10:43:32;;;;;;;3.25;1.70;;;;;;;36.66;29.45;93093.22;2071709;69;20180;-80
2023/08/16 10:45:57;;;;;;;3.72;1.80;;;;;;;38.98;26.49;93092.94;2068391;69;20253;-80
2023/08/16 10:48:23;;;;;;;1.75;1.50;;;;;;;39.00;26.66;93087.69;2071706;69;20566;-82
2023/08/16 10:50:57;;;;;;;2.45;1.50;;;;;;;38.42;26.61;93085.59;2071582;69;20619;-79
2023/08/16 10:53:25;;;;;;;3.17;1.63;;;;;;;40.64;24.70;93084.19;2073924;69;20168;-77
2023/08/16 10:55:55;;;;;;;2.80;1.45;;;;;;;42.44;22.48;93078.03;2075095;69;20259;-84
2023/08/16 10:58:25;;;;;;;2.10;1.50;;;;;;;41.62;23.32;93080.09;2071906;69;20211;-81
2023/08/16 11:00:58;;;;;;;4.00;1.60;;;;;;;40.06;23.80;93067.69;2075062;69;20227;-81
2023/08/16 11:03:37;;;;;;;2.53;1.50;;;;;;;41.71;22.06;93067.84;2075103;69;20141;-79
2023/08/16 11:06:11;;;;;;;3.70;1.50;;;;;;;42.58;21.62;93077.25;2071691;69;20140;-79
2023/08/16 11:08:41;;;;;;;2.55;1.60;;;;;;;44.58;20.69;93072.06;2071559;69;20190;-80
2023/08/16 11:11:08;;;;;;;1.58;1.40;;;;;;;44.37;20.64;93066.00;2074314;69;20247;-80
2023/08/16 11:13:34;;;;;;;3.97;1.60;;;;;;;44.88;20.86;93065.72;2074031;69;20167;-78
2023/08/16 11:16:00;;;;;;;1.38;1.15;;;;;;;46.82;20.24;93059.13;2071043;69;20521;-79
2023/08/16 11:18:32;;;;;;;1.88;1.30;;;;;;;45.76;20.32;93062.88;2074429;69;20167;-79
2023/08/16 11:20:59;;;;;;;5.03;1.52;;;;;;;46.56;18.04;93058.81;2074247;69;21464;-78
2023/08/16 11:23:40;;;;;;;1.85;1.02;;;;;;;49.01;18.86;93066.28;2071473;69;20152;-78
2023/08/16 11:26:08;;;;;;;;;;;;;;;49.42;16.22;93059.94;2071740;69;20156;-80
2023/08/16 11:28:39;;;;;;;1.55;1.10;;;;;;;49.23;17.50;93052.50;2068259;69;20106;-78
2023/08/16 11:31:08;;;;;;;2.40;1.30;;;;;;;48.24;16.16;93052.94;2071493;69;20545;-78
2023/08/16 11:33:36;;;;;;;1.60;1.33;;;;;;;44.80;18.71;93040.25;2071494;69;20233;-78